Renner, South Dakota
Current Conditions -  °F | °C
As of 11:56 AM on Wednesday 26 Nov 2014 (Local Time) from KFSD Reporting Station
Few Clouds Few Clouds  
Wind Chill:   Ceiling: Unl
Heat Index: 21°   Visibility: 10mi
Dew Point: 14°   Wind: 18mph
Humidity: 74%   Direction: 350°N
Pressure: 30.21"   Gusts: NA
Location:  43.65°N, 96.73°W
Report Text: KFSD 261756Z 35016KT 10SM FEW015 M06/M10 A3021 RMK AO2 SLP253 4/001 60000 T10611100 11017 21061 51037
Loading
Personal Weather Stations






























Interactive Weather Map New forecast layout! Learn more

10-Day Weather Forecast

Advertisements
Track Severe Weather on mobile